Whitby, West Virginia
Current Conditions -  °F | °C
As of 6:51 PM on Friday 24 Oct 2014 (Local Time) from KBKW Reporting Station
Clear Clear  
Wind Chill: 51°   Ceiling: Unl
Heat Index: 51°   Visibility: 10mi
Dew Point: 37°   Wind: 0mph
Humidity: 59%   Direction: NA
Pressure: 30.05"   Gusts: NA
Location:  37.6789°N, 81.2106°W
Report Text: KBKW 242251Z AUTO 00000KT 10SM CLR 11/03 A3005 RMK AO2 SLP184 T01060028 TSNO
Loading
Personal Weather Stations






























Interactive Weather Map
Tropical Storm Tracking
New forecast layout! Learn more

10-Day Weather Forecast

Advertisements
Track Severe Weather on mobile